Latest Coastal Weather Observations for Wyndham Airport

IDD60701

Issued at 6:11 am CST Wednesday 28 June 2017 (issued every 10 minutes, with the page automatically refreshed every 10 minutes)

About coastal observations | Map of coastal stations | Coastal observations for NT | Marine services | Other Formats
Station Details ID: 001006 Name: WYNDHAM AERO Lat: -15.51 Lon: 128.15 Height: 3.8 m
Data from the previous 72 hours. | See also: Recent months at Wyndham Airport
Date/Time
CST
Temp
°C
Wind Pressure Rain since
9am
mm
Weather Cloud Vis
km
Sea
Height
m
Swell
Dir  Spd
kts
Gust
kts
hPa Trend Height
m
Period
s
Dir
28/06:00am 18.7 NW 2 3 1013.4 - 0.0 - - - - - - -
28/05:30am 19.1 NNW 3 4 1013.2 - 0.0 - - - - - - -
28/05:00am 19.0 CALM 0 0 1012.9 - 0.0 - - - - - - -
28/04:30am 19.2 CALM 0 0 1012.9 - 0.0 - - - - - - -
28/04:00am 18.8 CALM 0 0 1013.0 - 0.0 - - - - - - -
28/03:30am 19.2 SSW 5 5 1013.1 - 0.0 - - - - - - -
28/03:00am 18.8 WSW 3 4 1013.3 - 0.0 - - - - - - -
28/02:30am 18.9 NNW 4 4 1013.2 - 0.0 - - - - - - -
28/02:00am 19.2 NNW 3 4 1013.4 - 0.0 - - - - - - -
28/01:30am 19.8 CALM 0 3 1013.5 - 0.0 - - - - - - -
28/01:00am 20.6 ESE 5 6 1013.4 - 0.0 - - - - - - -
28/12:30am 21.0 E 4 6 1013.6 - 0.0 - - - - - - -
28/12:00am 21.6 ENE 5 7 1013.7 - 0.0 - - - - - - -
 
Date/Time
CST
Temp
°C
Wind Pressure Rain since
9am
mm
Weather Cloud Vis
km
Sea
Height
m
Swell
Dir  Spd
kts
Gust
kts
hPa Trend Height
m
Period
s
Dir
27/11:30pm 22.2 ESE 6 8 1013.9 - 0.0 - - - - - - -
27/11:00pm 23.3 E 7 9 1013.9 - 0.0 - - - - - - -
27/10:30pm 24.0 ESE 5 9 1013.9 - 0.0 - - - - - - -
27/10:00pm 24.1 CALM 0 0 1013.8 - 0.0 - - - - - - -
27/09:30pm 24.3 CALM 0 0 1013.4 - 0.0 - - - - - - -
27/09:00pm 26.2 CALM 0 0 1013.2 - 0.0 - - - - - - -
27/08:30pm 25.9 NNE 1 4 1012.9 - 0.0 - - - - - - -
27/08:00pm 27.2 N 7 9 1012.5 - 0.0 - - - - - - -
27/07:30pm 27.4 N 8 10 1012.3 - 0.0 - - - - - - -
27/07:00pm 27.9 N 7 9 1012.0 - 0.0 - - - - - - -
27/06:30pm 28.8 N 5 6 1011.7 - 0.0 - - - - - - -
27/06:00pm 30.6 NNW 5 8 1011.4 - 0.0 - - - - - - -
27/05:30pm 32.0 NNW 4 6 1011.1 - 0.0 - - - - - - -
27/05:00pm 32.4 NW 6 9 1011.0 - 0.0 - - - - - - -
27/04:30pm 32.5 WNW 8 11 1010.9 - 0.0 - - - - - - -
27/04:00pm 32.5 WNW 9 11 1011.0 - 0.0 - - - - - - -
27/03:30pm 32.2 NW 8 13 1011.3 - 0.0 - - - - - - -
27/03:00pm 32.2 WNW 8 11 1011.6 - 0.0 - - - - - - -
27/02:30pm 32.1 WNW 7 10 1012.1 - 0.0 - - - - - - -
27/02:00pm 32.3 SE 7 10 1012.4 - 0.0 - - - - - - -
27/01:30pm 31.2 W 6 8 1013.0 - 0.0 - - - - - - -
27/01:00pm 30.4 WSW 7 9 1013.5 - 0.0 - - - - - - -
27/12:30pm 30.1 WSW 6 8 1014.0 - 0.0 - - - - - - -
27/12:00pm 29.0 SW 4 7 1014.5 - 0.0 - - - - - - -
27/11:30am 28.4 WSW 5 7 1014.8 - 0.0 - - - - - - -
27/11:00am 27.4 WSW 4 5 1015.0 - 0.0 - - - - - - -
27/10:30am 26.3 W 3 4 1015.3 - 0.0 - - - - - - -
27/10:00am 25.0 WSW 3 4 1015.3 - 0.0 - - - - - - -
27/09:30am 23.9 SW 2 4 1015.3 - 0.0 - - - - - - -
27/09:00am 22.8 SW 3 4 1015.0 - 0.0 - - - - - - -
27/08:30am 21.0 SW 2 4 1014.7 - 0.0 - - - - - - -
27/08:00am 18.6 WSW 1 3 1014.3 - 0.0 - - - - - - -
27/07:30am 17.9 CALM 0 0 1014.0 - 0.0 - - - - - - -
27/07:00am 18.4 N 1 3 1013.9 - 0.0 - - - - - - -
27/06:30am 18.5 SW 3 4 1013.7 - 0.0 - - - - - - -
27/06:00am 17.9 WNW 3 4 1013.9 - 0.0 - - - - - - -
27/05:30am 17.9 NNW 2 3 1013.6 - 0.0 - - - - - - -
27/05:00am 18.2 CALM 0 4 1013.4 - 0.0 - - - - - - -
27/04:30am 18.3 WSW 3 4 1013.4 - 0.0 - - - - - - -
27/04:00am 18.0 WSW 3 4 1013.4 - 0.0 - - - - - - -
27/03:30am 18.6 CALM 0 0 1013.6 - 0.0 - - - - - - -
27/03:00am 18.4 CALM 0 0 1013.8 - 0.0 - - - - - - -
27/02:30am 19.8 ENE 3 4 1013.8 - 0.0 - - - - - - -
27/02:00am 20.2 E 6 8 1013.9 - 0.0 - - - - - - -
27/01:30am 20.6 E 8 9 1014.0 - 0.0 - - - - - - -
27/01:00am 20.7 E 8 8 1014.2 - 0.0 - - - - - - -
27/12:30am 20.9 ESE 9 10 1014.3 - 0.0 - - - - - - -
27/12:00am 21.2 E 7 9 1014.4 - 0.0 - - - - - - -
 
Date/Time
CST
Temp
°C
Wind Pressure Rain since
9am
mm
Weather Cloud Vis
km
Sea
Height
m
Swell
Dir  Spd
kts
Gust
kts
hPa Trend Height
m
Period
s
Dir
26/11:30pm 21.9 E 8 9 1014.4 - 0.0 - - - - - - -
26/11:00pm 22.3 E 7 8 1014.4 - 0.0 - - - - - - -
26/10:30pm 21.6 ENE 1 6 1014.3 - 0.0 - - - - - - -
26/10:00pm 22.8 SSW 4 5 1014.2 - 0.0 - - - - - - -
26/09:30pm 24.5 CALM 0 4 1013.9 - 0.0 - - - - - - -
26/09:00pm 25.2 CALM 0 3 1013.7 - 0.0 - - - - - - -
26/08:30pm 25.9 WSW 2 4 1013.4 - 0.0 - - - - - - -
26/08:00pm 26.1 CALM 0 0 1013.2 - 0.0 - - - - - - -
26/07:30pm 27.0 N 7 10 1012.9 - 0.0 - - - - - - -
26/07:00pm 27.1 N 6 8 1012.5 - 0.0 - - - - - - -
26/06:30pm 28.2 N 10 13 1012.2 - 0.0 - - - - - - -
26/06:00pm 29.3 N 9 12 1012.1 - 0.0 - - - - - - -
26/05:30pm 30.4 NNW 8 11 1012.0 - 0.0 - - - - - - -
26/05:00pm 30.8 NNW 10 13 1011.6 - 0.0 - - - - - - -
26/04:30pm 31.3 NNW 12 15 1011.4 - 0.0 - - - - - - -
26/04:00pm 31.8 NNW 13 16 1011.4 - 0.0 - - - - - - -
26/03:30pm 31.4 NNW 14 17 1011.4 - 0.0 - - - - - - -
26/03:00pm 32.6 NNW 10 20 1011.5 - 0.0 - - - - - - -
26/02:30pm 32.0 NNW 9 13 1011.9 - 0.0 - - - - - - -
26/02:00pm 32.5 N 7 13 1012.3 - 0.0 - - - - - - -
26/01:30pm 32.3 N 8 12 1012.7 - 0.0 - - - - - - -
26/01:00pm 32.3 NNE 7 9 1013.5 - 0.0 - - - - - - -
26/12:30pm 31.6 NNE 9 15 1013.7 - 0.0 - - - - - - -
26/12:00pm 30.8 NNE 9 14 1014.1 - 0.0 - - - - - - -
26/11:30am 30.9 E 6 13 1014.5 - 0.0 - - - - - - -
26/11:00am 27.7 SW 3 5 1014.7 - 0.0 - - - - - - -
26/10:30am 26.0 SW 4 5 1014.8 - 0.0 - - - - - - -
26/10:00am 24.7 SW 5 6 1015.0 - 0.0 - - - - - - -
26/09:30am 23.3 SW 6 7 1014.8 - 0.0 - - - - - - -
26/09:00am 22.6 WSW 3 5 1014.6 - 0.0 - - - - - - -
26/08:30am 22.0 NW 2 4 1014.2 - 0.0 - - - - - - -
26/08:00am 18.8 NW 3 4 1013.8 - 0.0 - - - - - - -
26/07:30am 16.9 NW 4 4 1013.5 - 0.0 - - - - - - -
26/07:00am 17.9 WNW 3 4 1013.1 - 0.0 - - - - - - -
26/06:30am 18.3 NNW 4 5 1012.9 - 0.0 - - - - - - -
26/06:00am 17.6 WNW 4 5 1012.8 - 0.0 - - - - - - -
26/05:30am 17.7 WNW 5 6 1012.6 - 0.0 - - - - - - -
26/05:00am 16.9 WNW 4 5 1012.4 - 0.0 - - - - - - -
26/04:30am 17.2 CALM 0 0 1012.3 - 0.0 - - - - - - -
26/04:00am 18.1 SW 4 6 1012.3 - 0.0 - - - - - - -
26/03:30am 17.3 CALM 0 5 1012.3 - 0.0 - - - - - - -
26/03:00am 18.9 ENE 4 5 1012.3 - 0.0 - - - - - - -
26/02:30am 18.0 E 3 4 1012.5 - 0.0 - - - - - - -
26/02:00am 18.2 CALM 0 0 1012.9 - 0.0 - - - - - - -
26/01:30am 19.4 ESE 4 5 1012.9 - 0.0 - - - - - - -
26/01:00am 20.1 E 6 7 1013.0 - 0.0 - - - - - - -
26/12:30am 19.9 E 6 7 1013.0 - 0.0 - - - - - - -
26/12:00am 20.6 E 5 6 1013.0 - 0.0 - - - - - - -
 
Date/Time
CST
Temp
°C
Wind Pressure Rain since
9am
mm
Weather Cloud Vis
km
Sea
Height
m
Swell
Dir  Spd
kts
Gust
kts
hPa Trend Height
m
Period
s
Dir
25/11:30pm 21.3 E 6 7 1013.1 - 0.0 - - - - - - -
25/11:00pm 21.7 E 7 7 1013.0 - 0.0 - - - - - - -
25/10:30pm 21.5 ESE 6 7 1012.9 - 0.0 - - - - - - -
25/10:00pm 22.5 E 6 7 1012.8 - 0.0 - - - - - - -
25/09:30pm 22.8 CALM 0 0 1012.6 - 0.0 - - - - - - -
25/09:00pm 23.4 CALM 0 0 1012.4 - 0.0 - - - - - - -
25/08:30pm 24.4 W 4 5 1012.1 - 0.0 - - - - - - -
25/08:00pm 25.6 E 4 6 1011.6 - 0.0 - - - - - - -
25/07:30pm 27.0 N 7 9 1011.3 - 0.0 - - - - - - -
25/07:00pm 27.5 N 8 9 1011.0 - 0.0 - - - - - - -
25/06:30pm 28.4 N 8 11 1010.9 - 0.0 - - - - - - -
25/06:00pm 29.6 N 10 14 1010.7 - 0.0 - - - - - - -
25/05:30pm 30.5 N 11 13 1010.6 - 0.0 - - - - - - -
25/05:00pm 31.2 NNW 10 13 1010.6 - 0.0 - - - - - - -
25/04:30pm 32.0 WNW 11 15 1010.4 - 0.0 - - - - - - -
25/04:00pm 33.1 ENE 4 8 1010.6 - 0.0 - - - - - - -
25/03:30pm 33.3 ENE 7 11 1010.6 - 0.0 - - - - - - -
25/03:00pm 33.6 E 5 11 1010.9 - 0.0 - - - - - - -
25/02:30pm 33.2 NNE 7 13 1011.4 - 0.0 - - - - - - -
25/02:00pm 32.8 E 8 14 1011.9 - 0.0 - - - - - - -
25/01:30pm 32.8 NE 8 13 1012.3 - 0.0 - - - - - - -
25/01:00pm 32.0 ENE 8 13 1012.9 - 0.0 - - - - - - -
25/12:30pm 31.6 NE 8 12 1013.5 - 0.0 - - - - - - -
25/12:00pm 31.8 E 8 13 1013.9 - 0.0 - - - - - - -
25/11:30am 30.9 E 7 11 1014.4 - 0.0 - - - - - - -
25/11:00am 29.8 ESE 7 10 1014.7 - 0.0 - - - - - - -
25/10:30am 27.4 SSW 4 6 1014.8 - 0.0 - - - - - - -
25/10:00am 25.9 SW 5 6 1014.8 - 0.0 - - - - - - -
25/09:30am 25.1 NW 2 4 1014.7 - 0.0 - - - - - - -
25/09:00am 23.2 SW 4 4 1014.5 - 0.0 - - - - - - -
25/08:30am 21.9 CALM 0 0 1014.1 - 0.0 - - - - - - -
25/08:00am 19.3 CALM 0 0 1013.5 - 0.0 - - - - - - -

Other Formats:

Comma delimited format used in spreadsheet applications
http://www.bom.gov.au/fwo/IDD60701/IDD60701.95214.axf

JavaScript Object Notation format (JSON) in row-major order
http://www.bom.gov.au/fwo/IDD60701/IDD60701.95214.json